sensor_id;sensor_type;location;lat;lon;timestamp;pressure;altitude;pressure_sealevel;temperature;humidity
11912;BME280;6016;41.928;25.556;2023-03-03T00:01:30;99336.06;;;7.48;81.51
11912;BME280;6016;41.928;25.556;2023-03-03T00:03:57;99365.16;;;7.81;82.27
11912;BME280;6016;41.928;25.556;2023-03-03T00:06:26;99358.81;;;7.72;81.46
11912;BME280;6016;41.928;25.556;2023-03-03T00:08:54;99345.25;;;7.54;81.71
11912;BME280;6016;41.928;25.556;2023-03-03T00:11:21;99356.84;;;7.63;82.24
11912;BME280;6016;41.928;25.556;2023-03-03T00:13:53;99331.41;;;7.52;81.56
11912;BME280;6016;41.928;25.556;2023-03-03T00:16:24;99122.25;;;6.11;81.37
11912;BME280;6016;41.928;25.556;2023-03-03T00:18:51;99345.03;;;7.57;81.33
11912;BME280;6016;41.928;25.556;2023-03-03T00:21:29;99343.72;;;7.63;81.93
11912;BME280;6016;41.928;25.556;2023-03-03T00:24:16;99335.19;;;7.72;82.44
11912;BME280;6016;41.928;25.556;2023-03-03T00:26:44;99339.03;;;7.79;82.20
11912;BME280;6016;41.928;25.556;2023-03-03T00:29:28;99293.63;;;7.54;80.89
11912;BME280;6016;41.928;25.556;2023-03-03T00:32:17;99322.72;;;7.63;80.95
11912;BME280;6016;41.928;25.556;2023-03-03T00:34:46;99279.53;;;7.20;81.13
11912;BME280;6016;41.928;25.556;2023-03-03T00:37:25;99321.78;;;7.64;81.07
11912;BME280;6016;41.928;25.556;2023-03-03T00:39:52;99321.06;;;7.62;82.00
11912;BME280;6016;41.928;25.556;2023-03-03T00:42:19;99313.66;;;7.55;81.27
11912;BME280;6016;41.928;25.556;2023-03-03T00:44:47;99322.91;;;7.72;81.88
11912;BME280;6016;41.928;25.556;2023-03-03T00:47:27;99275.06;;;7.44;81.08
11912;BME280;6016;41.928;25.556;2023-03-03T00:50:15;99325.53;;;7.72;82.10
11912;BME280;6016;41.928;25.556;2023-03-03T00:52:51;99321.34;;;7.70;80.54
11912;BME280;6016;41.928;25.556;2023-03-03T00:55:19;99315.16;;;7.82;80.73
11912;BME280;6016;41.928;25.556;2023-03-03T00:57:45;99312.03;;;7.77;80.49
11912;BME280;6016;41.928;25.556;2023-03-03T01:00:13;99294.00;;;7.72;79.68
11912;BME280;6016;41.928;25.556;2023-03-03T01:02:40;99304.91;;;7.91;80.33
11912;BME280;6016;41.928;25.556;2023-03-03T01:05:12;99311.84;;;7.92;79.73
11912;BME280;6016;41.928;25.556;2023-03-03T01:07:39;99312.53;;;7.94;80.18
11912;BME280;6016;41.928;25.556;2023-03-03T01:10:08;99311.34;;;7.98;80.29
11912;BME280;6016;41.928;25.556;2023-03-03T01:12:35;99286.25;;;7.82;78.94
11912;BME280;6016;41.928;25.556;2023-03-03T01:15:04;99311.47;;;7.96;78.97
11912;BME280;6016;41.928;25.556;2023-03-03T01:17:30;99261.06;;;7.68;79.16
11912;BME280;6016;41.928;25.556;2023-03-03T01:19:58;99302.16;;;8.03;80.46
11912;BME280;6016;41.928;25.556;2023-03-03T01:22:25;99306.34;;;7.95;78.61
11912;BME280;6016;41.928;25.556;2023-03-03T01:24:52;99300.22;;;7.83;79.17
11912;BME280;6016;41.928;25.556;2023-03-03T01:27:20;99213.28;;;7.40;79.49
11912;BME280;6016;41.928;25.556;2023-03-03T01:29:47;99309.44;;;8.00;78.97
11912;BME280;6016;41.928;25.556;2023-03-03T01:32:14;99284.09;;;7.87;79.48
11912;BME280;6016;41.928;25.556;2023-03-03T01:34:40;99255.31;;;7.63;78.51
11912;BME280;6016;41.928;25.556;2023-03-03T01:37:07;99295.59;;;7.98;79.98
11912;BME280;6016;41.928;25.556;2023-03-03T01:39:34;99296.81;;;8.05;80.01
11912;BME280;6016;41.928;25.556;2023-03-03T01:42:02;99302.53;;;8.10;78.47
11912;BME280;6016;41.928;25.556;2023-03-03T01:44:30;99302.88;;;8.06;78.95
11912;BME280;6016;41.928;25.556;2023-03-03T01:46:58;99278.16;;;7.97;78.77
11912;BME280;6016;41.928;25.556;2023-03-03T01:49:33;99299.41;;;7.94;78.09
11912;BME280;6016;41.928;25.556;2023-03-03T01:52:04;99292.84;;;7.88;79.65
11912;BME280;6016;41.928;25.556;2023-03-03T01:54:38;99293.66;;;7.88;79.07
11912;BME280;6016;41.928;25.556;2023-03-03T01:57:12;99305.34;;;7.84;81.17
11912;BME280;6016;41.928;25.556;2023-03-03T01:59:44;99247.31;;;7.53;80.42
11912;BME280;6016;41.928;25.556;2023-03-03T02:02:12;99304.91;;;7.91;79.17
11912;BME280;6016;41.928;25.556;2023-03-03T02:04:39;99312.03;;;7.88;79.82
11912;BME280;6016;41.928;25.556;2023-03-03T02:07:08;99309.41;;;7.88;79.75
11912;BME280;6016;41.928;25.556;2023-03-03T02:09:41;99311.47;;;7.85;79.39
11912;BME280;6016;41.928;25.556;2023-03-03T02:12:13;99303.09;;;7.91;79.71
11912;BME280;6016;41.928;25.556;2023-03-03T02:14:42;99256.53;;;7.59;79.00
11912;BME280;6016;41.928;25.556;2023-03-03T02:17:09;99288.88;;;7.82;79.42
11912;BME280;6016;41.928;25.556;2023-03-03T02:19:43;99297.25;;;7.87;80.12
11912;BME280;6016;41.928;25.556;2023-03-03T02:22:13;99304.06;;;7.90;80.19
11912;BME280;6016;41.928;25.556;2023-03-03T02:24:46;99303.34;;;7.88;80.16
11912;BME280;6016;41.928;25.556;2023-03-03T02:27:17;99300.34;;;7.81;79.76
11912;BME280;6016;41.928;25.556;2023-03-03T02:29:44;99260.53;;;7.40;80.63
11912;BME280;6016;41.928;25.556;2023-03-03T02:32:11;99305.09;;;7.76;81.40
11912;BME280;6016;41.928;25.556;2023-03-03T02:34:48;99263.81;;;7.67;80.74
11912;BME280;6016;41.928;25.556;2023-03-03T02:37:15;99292.44;;;7.70;80.60
11912;BME280;6016;41.928;25.556;2023-03-03T02:39:43;99277.97;;;7.53;80.37
11912;BME280;6016;41.928;25.556;2023-03-03T02:42:14;99055.84;;;6.12;81.36
11912;BME280;6016;41.928;25.556;2023-03-03T02:44:44;99292.66;;;7.55;81.25
11912;BME280;6016;41.928;25.556;2023-03-03T02:47:11;99234.16;;;7.30;81.02
11912;BME280;6016;41.928;25.556;2023-03-03T02:49:38;99206.81;;;7.22;80.89
11912;BME280;6016;41.928;25.556;2023-03-03T02:52:07;99274.28;;;7.55;80.18
11912;BME280;6016;41.928;25.556;2023-03-03T02:54:35;99285.03;;;7.64;80.54
11912;BME280;6016;41.928;25.556;2023-03-03T02:57:03;99286.91;;;7.50;80.87
11912;BME280;6016;41.928;25.556;2023-03-03T02:59:30;99280.50;;;7.54;81.58
11912;BME280;6016;41.928;25.556;2023-03-03T03:01:59;99283.50;;;7.61;82.07
11912;BME280;6016;41.928;25.556;2023-03-03T03:04:26;99079.44;;;6.47;82.07
11912;BME280;6016;41.928;25.556;2023-03-03T03:06:54;99275.63;;;7.61;80.83
11912;BME280;6016;41.928;25.556;2023-03-03T03:09:22;98944.94;;;5.64;80.64
11912;BME280;6016;41.928;25.556;2023-03-03T03:11:49;99076.94;;;6.46;80.59
11912;BME280;6016;41.928;25.556;2023-03-03T03:14:16;99279.41;;;7.57;80.89
11912;BME280;6016;41.928;25.556;2023-03-03T03:16:42;99278.44;;;7.58;81.14
11912;BME280;6016;41.928;25.556;2023-03-03T03:19:11;99274.75;;;7.60;82.09
11912;BME280;6016;41.928;25.556;2023-03-03T03:21:38;99278.63;;;7.68;81.73
11912;BME280;6016;41.928;25.556;2023-03-03T03:24:05;99116.19;;;6.70;81.30
11912;BME280;6016;41.928;25.556;2023-03-03T03:26:32;99275.25;;;7.54;81.96
11912;BME280;6016;41.928;25.556;2023-03-03T03:28:58;99264.81;;;7.41;81.90
11912;BME280;6016;41.928;25.556;2023-03-03T03:31:25;99270.91;;;7.42;82.41
11912;BME280;6016;41.928;25.556;2023-03-03T03:33:52;99270.19;;;7.51;82.85
11912;BME280;6016;41.928;25.556;2023-03-03T03:36:20;99266.06;;;7.60;82.86
11912;BME280;6016;41.928;25.556;2023-03-03T03:38:47;99240.25;;;7.42;81.50
11912;BME280;6016;41.928;25.556;2023-03-03T03:41:14;99211.69;;;7.26;81.66
11912;BME280;6016;41.928;25.556;2023-03-03T03:43:41;99267.50;;;7.64;81.75
11912;BME280;6016;41.928;25.556;2023-03-03T03:46:08;99265.69;;;7.65;81.94
11912;BME280;6016;41.928;25.556;2023-03-03T03:48:35;99273.97;;;7.71;81.65
11912;BME280;6016;41.928;25.556;2023-03-03T03:51:02;99273.13;;;7.71;81.34
11912;BME280;6016;41.928;25.556;2023-03-03T03:53:31;99061.56;;;6.41;81.73
11912;BME280;6016;41.928;25.556;2023-03-03T03:55:57;99267.41;;;7.66;81.84
11912;BME280;6016;41.928;25.556;2023-03-03T03:58:24;99262.59;;;7.59;82.80
11912;BME280;6016;41.928;25.556;2023-03-03T04:00:51;99263.66;;;7.57;81.49
11912;BME280;6016;41.928;25.556;2023-03-03T04:03:18;99261.63;;;7.49;81.73
11912;BME280;6016;41.928;25.556;2023-03-03T04:05:45;99257.81;;;7.53;82.55
11912;BME280;6016;41.928;25.556;2023-03-03T04:08:12;99251.34;;;7.46;82.48
11912;BME280;6016;41.928;25.556;2023-03-03T04:10:40;99239.25;;;7.32;82.47
11912;BME280;6016;41.928;25.556;2023-03-03T04:13:07;99262.91;;;7.43;81.69
11912;BME280;6016;41.928;25.556;2023-03-03T04:15:34;99212.13;;;7.09;81.41
11912;BME280;6016;41.928;25.556;2023-03-03T04:18:01;99254.81;;;7.46;82.54
11912;BME280;6016;41.928;25.556;2023-03-03T04:20:28;99134.44;;;6.72;82.01
11912;BME280;6016;41.928;25.556;2023-03-03T04:22:55;99262.69;;;7.58;82.80
11912;BME280;6016;41.928;25.556;2023-03-03T04:25:22;99267.13;;;7.57;81.93
11912;BME280;6016;41.928;25.556;2023-03-03T04:27:51;99210.88;;;7.26;81.60
11912;BME280;6016;41.928;25.556;2023-03-03T04:30:18;99267.81;;;7.48;81.73
11912;BME280;6016;41.928;25.556;2023-03-03T04:32:45;99261.97;;;7.56;80.78
11912;BME280;6016;41.928;25.556;2023-03-03T04:35:14;99244.31;;;7.35;82.33
11912;BME280;6016;41.928;25.556;2023-03-03T04:37:40;99228.63;;;7.22;82.84
11912;BME280;6016;41.928;25.556;2023-03-03T04:40:08;99199.16;;;7.18;81.99
11912;BME280;6016;41.928;25.556;2023-03-03T04:42:35;99215.88;;;7.29;81.88
11912;BME280;6016;41.928;25.556;2023-03-03T04:45:04;99210.97;;;7.24;81.99
11912;BME280;6016;41.928;25.556;2023-03-03T04:47:31;99207.78;;;7.21;82.06
11912;BME280;6016;41.928;25.556;2023-03-03T04:49:58;99256.91;;;7.66;81.65
11912;BME280;6016;41.928;25.556;2023-03-03T04:52:25;99251.66;;;7.66;82.15
11912;BME280;6016;41.928;25.556;2023-03-03T04:54:52;99258.78;;;7.64;81.50
11912;BME280;6016;41.928;25.556;2023-03-03T04:57:19;99234.91;;;7.44;81.39
11912;BME280;6016;41.928;25.556;2023-03-03T04:59:46;99252.06;;;7.48;82.00
11912;BME280;6016;41.928;25.556;2023-03-03T05:02:14;99243.22;;;7.38;82.63
11912;BME280;6016;41.928;25.556;2023-03-03T05:04:41;99261.16;;;7.55;82.92
11912;BME280;6016;41.928;25.556;2023-03-03T05:07:08;99231.03;;;7.37;82.05
11912;BME280;6016;41.928;25.556;2023-03-03T05:09:35;99246.13;;;7.57;81.25
11912;BME280;6016;41.928;25.556;2023-03-03T05:12:02;99266.22;;;7.81;81.29
11912;BME280;6016;41.928;25.556;2023-03-03T05:14:29;99243.88;;;7.76;80.50
11912;BME280;6016;41.928;25.556;2023-03-03T05:16:56;99142.88;;;7.11;79.99
11912;BME280;6016;41.928;25.556;2023-03-03T05:19:25;99251.75;;;7.76;80.28
11912;BME280;6016;41.928;25.556;2023-03-03T05:21:52;99228.38;;;7.61;80.79
11912;BME280;6016;41.928;25.556;2023-03-03T05:24:19;99205.22;;;7.08;80.89
11912;BME280;6016;41.928;25.556;2023-03-03T05:26:46;99267.38;;;7.54;82.08
11912;BME280;6016;41.928;25.556;2023-03-03T05:29:13;99146.97;;;6.80;81.72
11912;BME280;6016;41.928;25.556;2023-03-03T05:31:40;99275.84;;;7.69;81.93
11912;BME280;6016;41.928;25.556;2023-03-03T05:34:07;99224.06;;;7.49;81.95
11912;BME280;6016;41.928;25.556;2023-03-03T05:36:35;99275.63;;;7.72;81.40
11912;BME280;6016;41.928;25.556;2023-03-03T05:39:02;99204.94;;;7.35;80.81
11912;BME280;6016;41.928;25.556;2023-03-03T05:41:29;99273.13;;;7.71;81.31
11912;BME280;6016;41.928;25.556;2023-03-03T05:43:55;99271.91;;;7.75;81.81
11912;BME280;6016;41.928;25.556;2023-03-03T05:46:22;99199.53;;;7.25;80.80
11912;BME280;6016;41.928;25.556;2023-03-03T05:48:49;99250.03;;;7.40;80.82
11912;BME280;6016;41.928;25.556;2023-03-03T05:51:16;99271.75;;;7.42;81.99
11912;BME280;6016;41.928;25.556;2023-03-03T05:53:44;99242.59;;;7.23;82.08
11912;BME280;6016;41.928;25.556;2023-03-03T05:56:11;99260.56;;;7.52;82.29
11912;BME280;6016;41.928;25.556;2023-03-03T05:58:38;99213.84;;;7.21;82.83
11912;BME280;6016;41.928;25.556;2023-03-03T06:01:04;99220.81;;;7.45;82.17
11912;BME280;6016;41.928;25.556;2023-03-03T06:03:31;99274.69;;;7.85;82.01
11912;BME280;6016;41.928;25.556;2023-03-03T06:05:58;99269.81;;;7.92;82.27
11912;BME280;6016;41.928;25.556;2023-03-03T06:08:25;99260.00;;;7.82;81.33
11912;BME280;6016;41.928;25.556;2023-03-03T06:10:53;99267.19;;;8.03;81.91
11912;BME280;6016;41.928;25.556;2023-03-03T06:13:20;99185.75;;;7.46;81.68
11912;BME280;6016;41.928;25.556;2023-03-03T06:15:47;99235.41;;;7.72;80.57
11912;BME280;6016;41.928;25.556;2023-03-03T06:18:13;99279.97;;;7.96;80.12
11912;BME280;6016;41.928;25.556;2023-03-03T06:20:40;99204.03;;;7.59;81.08
11912;BME280;6016;41.928;25.556;2023-03-03T06:23:07;99283.66;;;7.94;81.08
11912;BME280;6016;41.928;25.556;2023-03-03T06:25:34;99279.25;;;8.17;81.18
11912;BME280;6016;41.928;25.556;2023-03-03T06:28:03;99220.38;;;7.85;80.15
11912;BME280;6016;41.928;25.556;2023-03-03T06:30:29;99277.81;;;8.13;80.20
11912;BME280;6016;41.928;25.556;2023-03-03T06:32:56;99167.97;;;7.50;80.10
11912;BME280;6016;41.928;25.556;2023-03-03T06:35:23;99281.59;;;8.09;81.11
11912;BME280;6016;41.928;25.556;2023-03-03T06:37:50;99282.22;;;8.01;80.59
11912;BME280;6016;41.928;25.556;2023-03-03T06:40:17;99241.63;;;7.82;81.23
11912;BME280;6016;41.928;25.556;2023-03-03T06:42:44;99285.81;;;8.11;80.69
11912;BME280;6016;41.928;25.556;2023-03-03T06:45:12;99265.25;;;7.82;81.25
11912;BME280;6016;41.928;25.556;2023-03-03T06:47:40;99236.94;;;7.63;80.78
11912;BME280;6016;41.928;25.556;2023-03-03T06:50:08;99258.00;;;7.86;81.07
11912;BME280;6016;41.928;25.556;2023-03-03T06:52:36;99223.59;;;7.78;81.40
11912;BME280;6016;41.928;25.556;2023-03-03T06:55:11;99271.97;;;8.09;81.48
11912;BME280;6016;41.928;25.556;2023-03-03T06:57:38;99275.19;;;8.13;80.50
11912;BME280;6016;41.928;25.556;2023-03-03T07:00:15;99272.56;;;8.13;81.00
11912;BME280;6016;41.928;25.556;2023-03-03T07:02:42;99267.16;;;8.14;80.43
11912;BME280;6016;41.928;25.556;2023-03-03T07:05:13;99270.63;;;8.15;80.09
11912;BME280;6016;41.928;25.556;2023-03-03T07:07:40;99251.91;;;7.97;80.21
11912;BME280;6016;41.928;25.556;2023-03-03T07:10:15;99271.09;;;8.20;80.81
11912;BME280;6016;41.928;25.556;2023-03-03T07:12:43;99105.09;;;7.02;80.06
11912;BME280;6016;41.928;25.556;2023-03-03T07:15:15;99258.44;;;7.80;80.73
11912;BME280;6016;41.928;25.556;2023-03-03T07:17:45;99272.06;;;7.85;81.51
11912;BME280;6016;41.928;25.556;2023-03-03T07:20:18;99272.91;;;7.97;82.54
11912;BME280;6016;41.928;25.556;2023-03-03T07:22:45;99277.91;;;7.88;81.59
11912;BME280;6016;41.928;25.556;2023-03-03T07:25:19;99220.56;;;7.48;81.89
11912;BME280;6016;41.928;25.556;2023-03-03T07:27:46;99274.31;;;7.89;81.50
11912;BME280;6016;41.928;25.556;2023-03-03T07:30:23;99219.75;;;7.48;82.74
11912;BME280;6016;41.928;25.556;2023-03-03T07:32:51;99273.97;;;7.94;83.87
11912;BME280;6016;41.928;25.556;2023-03-03T07:35:30;99274.22;;;8.02;82.47
11912;BME280;6016;41.928;25.556;2023-03-03T07:38:01;99271.59;;;8.02;81.95
11912;BME280;6016;41.928;25.556;2023-03-03T07:40:34;99268.00;;;7.92;82.71
11912;BME280;6016;41.928;25.556;2023-03-03T07:43:25;99275.88;;;7.81;82.38
11912;BME280;6016;41.928;25.556;2023-03-03T07:46:01;99263.34;;;7.84;82.47
11912;BME280;6016;41.928;25.556;2023-03-03T07:48:30;99239.63;;;7.39;83.30
11912;BME280;6016;41.928;25.556;2023-03-03T07:51:04;99266.53;;;7.65;83.82
11912;BME280;6016;41.928;25.556;2023-03-03T07:53:33;99270.13;;;7.64;82.97
11912;BME280;6016;41.928;25.556;2023-03-03T07:56:10;99253.41;;;7.54;83.82
11912;BME280;6016;41.928;25.556;2023-03-03T07:58:40;99273.59;;;7.76;83.79
11912;BME280;6016;41.928;25.556;2023-03-03T08:01:36;99271.84;;;7.88;82.64
11912;BME280;6016;41.928;25.556;2023-03-03T08:04:15;99261.69;;;7.95;82.55
11912;BME280;6016;41.928;25.556;2023-03-03T08:06:50;99213.44;;;7.62;82.73
11912;BME280;6016;41.928;25.556;2023-03-03T08:09:31;99262.06;;;8.13;83.13
11912;BME280;6016;41.928;25.556;2023-03-03T08:12:15;99136.13;;;7.31;82.51
11912;BME280;6016;41.928;25.556;2023-03-03T08:14:44;99271.50;;;8.15;81.94
11912;BME280;6016;41.928;25.556;2023-03-03T08:17:18;99267.41;;;8.23;81.90
11912;BME280;6016;41.928;25.556;2023-03-03T08:19:46;99228.97;;;7.99;82.22
11912;BME280;6016;41.928;25.556;2023-03-03T08:22:15;99271.34;;;8.40;82.16
11912;BME280;6016;41.928;25.556;2023-03-03T08:24:43;99265.22;;;8.39;81.70
11912;BME280;6016;41.928;25.556;2023-03-03T08:27:10;99169.16;;;7.91;82.97
11912;BME280;6016;41.928;25.556;2023-03-03T08:29:36;99263.81;;;8.47;81.40
11912;BME280;6016;41.928;25.556;2023-03-03T08:32:04;99258.44;;;8.48;81.68
11912;BME280;6016;41.928;25.556;2023-03-03T08:34:32;99257.16;;;8.54;81.31
11912;BME280;6016;41.928;25.556;2023-03-03T08:36:59;99251.38;;;8.60;82.87
11912;BME280;6016;41.928;25.556;2023-03-03T08:39:26;99135.63;;;7.83;80.97
11912;BME280;6016;41.928;25.556;2023-03-03T08:41:52;99249.38;;;8.29;82.06
11912;BME280;6016;41.928;25.556;2023-03-03T08:44:19;99240.41;;;8.43;82.62
11912;BME280;6016;41.928;25.556;2023-03-03T08:46:46;99199.00;;;8.13;82.68
11912;BME280;6016;41.928;25.556;2023-03-03T08:49:16;99216.50;;;8.35;82.51
11912;BME280;6016;41.928;25.556;2023-03-03T08:51:44;99239.56;;;8.43;82.45
11912;BME280;6016;41.928;25.556;2023-03-03T08:54:11;99240.66;;;8.29;84.29
11912;BME280;6016;41.928;25.556;2023-03-03T08:56:37;99244.09;;;8.41;83.48
11912;BME280;6016;41.928;25.556;2023-03-03T08:59:04;99182.28;;;8.02;83.61
11912;BME280;6016;41.928;25.556;2023-03-03T09:01:32;99221.66;;;8.25;83.83
11912;BME280;6016;41.928;25.556;2023-03-03T09:03:59;99240.84;;;8.49;83.90
11912;BME280;6016;41.928;25.556;2023-03-03T09:06:25;99232.25;;;8.47;84.88
11912;BME280;6016;41.928;25.556;2023-03-03T09:08:54;99196.94;;;8.28;84.02
11912;BME280;6016;41.928;25.556;2023-03-03T09:11:23;99158.03;;;7.99;84.24
11912;BME280;6016;41.928;25.556;2023-03-03T09:13:51;99234.19;;;8.44;83.20
11912;BME280;6016;41.928;25.556;2023-03-03T09:16:20;99142.09;;;7.56;83.05
11912;BME280;6016;41.928;25.556;2023-03-03T09:18:47;99233.75;;;8.28;84.44
11912;BME280;6016;41.928;25.556;2023-03-03T09:21:21;99229.03;;;8.43;84.31
11912;BME280;6016;41.928;25.556;2023-03-03T09:23:54;99225.78;;;8.62;84.70
11912;BME280;6016;41.928;25.556;2023-03-03T09:26:24;99230.78;;;8.65;84.07
11912;BME280;6016;41.928;25.556;2023-03-03T09:28:54;99223.97;;;8.74;84.49
11912;BME280;6016;41.928;25.556;2023-03-03T09:31:24;99221.88;;;8.89;84.06
11912;BME280;6016;41.928;25.556;2023-03-03T09:33:52;99220.88;;;9.01;83.13
11912;BME280;6016;41.928;25.556;2023-03-03T09:36:24;99219.78;;;9.04;82.28
11912;BME280;6016;41.928;25.556;2023-03-03T09:38:52;99225.50;;;9.09;81.42
11912;BME280;6016;41.928;25.556;2023-03-03T09:41:58;99222.47;;;9.14;81.72
11912;BME280;6016;41.928;25.556;2023-03-03T09:44:49;99215.41;;;8.93;80.16
11912;BME280;6016;41.928;25.556;2023-03-03T09:47:41;99161.94;;;8.27;81.59
11912;BME280;6016;41.928;25.556;2023-03-03T09:50:20;99218.88;;;8.61;82.06
11912;BME280;6016;41.928;25.556;2023-03-03T09:52:55;99218.16;;;8.48;83.36
11912;BME280;6016;41.928;25.556;2023-03-03T09:55:37;99218.16;;;8.48;82.59
11912;BME280;6016;41.928;25.556;2023-03-03T09:58:19;99188.31;;;8.26;83.03
11912;BME280;6016;41.928;25.556;2023-03-03T10:00:56;99234.88;;;8.47;83.19
11912;BME280;6016;41.928;25.556;2023-03-03T10:06:37;99214.44;;;8.73;82.87
11912;BME280;6016;41.928;25.556;2023-03-03T10:09:37;99208.91;;;8.76;82.64
11912;BME280;6016;41.928;25.556;2023-03-03T10:12:11;99204.25;;;8.80;82.91
11912;BME280;6016;41.928;25.556;2023-03-03T10:14:58;99186.78;;;8.79;82.40
11912;BME280;6016;41.928;25.556;2023-03-03T10:17:36;99193.09;;;8.88;81.97
11912;BME280;6016;41.928;25.556;2023-03-03T10:20:21;99179.09;;;8.87;82.14
11912;BME280;6016;41.928;25.556;2023-03-03T10:22:52;99144.09;;;8.54;81.24
11912;BME280;6016;41.928;25.556;2023-03-03T10:25:27;99169.31;;;8.78;82.38
11912;BME280;6016;41.928;25.556;2023-03-03T10:28:17;99180.03;;;8.86;82.82
11912;BME280;6016;41.928;25.556;2023-03-03T10:31:01;99202.00;;;8.96;81.95
11912;BME280;6016;41.928;25.556;2023-03-03T10:33:38;99207.06;;;9.09;81.88
11912;BME280;6016;41.928;25.556;2023-03-03T10:36:22;99201.31;;;9.15;81.77
11912;BME280;6016;41.928;25.556;2023-03-03T10:39:00;99198.41;;;9.19;82.46
11912;BME280;6016;41.928;25.556;2023-03-03T10:41:46;99200.94;;;9.20;81.48
11912;BME280;6016;41.928;25.556;2023-03-03T10:44:28;99202.97;;;9.17;81.55
11912;BME280;6016;41.928;25.556;2023-03-03T10:47:09;99206.13;;;8.78;84.35
11912;BME280;6016;41.928;25.556;2023-03-03T10:49:54;99198.28;;;8.99;83.24
11912;BME280;6016;41.928;25.556;2023-03-03T10:52:31;99175.41;;;8.78;82.45
11912;BME280;6016;41.928;25.556;2023-03-03T10:55:10;99188.59;;;9.21;82.76
11912;BME280;6016;41.928;25.556;2023-03-03T10:57:46;99182.88;;;9.15;81.88
11912;BME280;6016;41.928;25.556;2023-03-03T11:00:21;99184.13;;;9.11;81.22
11912;BME280;6016;41.928;25.556;2023-03-03T11:05:54;99137.09;;;8.64;81.89
11912;BME280;6016;41.928;25.556;2023-03-03T11:08:29;99179.94;;;8.88;82.66
11912;BME280;6016;41.928;25.556;2023-03-03T11:11:06;99175.00;;;8.94;83.24
11912;BME280;6016;41.928;25.556;2023-03-03T11:13:41;99140.59;;;8.65;82.42
11912;BME280;6016;41.928;25.556;2023-03-03T11:16:24;99141.53;;;8.64;83.06
11912;BME280;6016;41.928;25.556;2023-03-03T11:19:11;99156.91;;;8.80;83.23
11912;BME280;6016;41.928;25.556;2023-03-03T11:21:50;99154.59;;;8.86;82.63
11912;BME280;6016;41.928;25.556;2023-03-03T11:24:38;99158.56;;;9.02;82.31
11912;BME280;6016;41.928;25.556;2023-03-03T11:27:24;99141.66;;;8.62;83.22
11912;BME280;6016;41.928;25.556;2023-03-03T11:30:05;99128.16;;;8.23;83.06
11912;BME280;6016;41.928;25.556;2023-03-03T11:32:42;99144.44;;;8.61;83.47
11912;BME280;6016;41.928;25.556;2023-03-03T11:35:25;99149.72;;;8.82;83.27
11912;BME280;6016;41.928;25.556;2023-03-03T11:38:01;99146.81;;;8.85;82.84
11912;BME280;6016;41.928;25.556;2023-03-03T11:40:36;99144.50;;;8.92;83.16
11912;BME280;6016;41.928;25.556;2023-03-03T11:43:14;99146.50;;;8.99;83.28
11912;BME280;6016;41.928;25.556;2023-03-03T11:45:45;99128.19;;;8.77;83.39
11912;BME280;6016;41.928;25.556;2023-03-03T11:48:18;99034.06;;;8.16;83.17
11912;BME280;6016;41.928;25.556;2023-03-03T11:50:54;99143.22;;;8.86;82.46
11912;BME280;6016;41.928;25.556;2023-03-03T11:53:31;99144.44;;;9.03;83.61
11912;BME280;6016;41.928;25.556;2023-03-03T11:56:12;99127.38;;;9.19;83.43
11912;BME280;6016;41.928;25.556;2023-03-03T11:58:46;99130.50;;;9.34;82.20
11912;BME280;6016;41.928;25.556;2023-03-03T12:01:17;99130.50;;;9.34;79.33
11912;BME280;6016;41.928;25.556;2023-03-03T12:03:48;99081.50;;;8.90;79.59
11912;BME280;6016;41.928;25.556;2023-03-03T12:06:25;99122.69;;;9.01;79.71
11912;BME280;6016;41.928;25.556;2023-03-03T12:09:19;99123.19;;;9.16;80.73
11912;BME280;6016;41.928;25.556;2023-03-03T12:11:52;99120.97;;;9.42;80.07
11912;BME280;6016;41.928;25.556;2023-03-03T12:17:27;99122.88;;;9.71;80.59
11912;BME280;6016;41.928;25.556;2023-03-03T12:20:02;99125.41;;;9.83;80.07
11912;BME280;6016;41.928;25.556;2023-03-03T12:22:34;99114.16;;;9.71;79.09
11912;BME280;6016;41.928;25.556;2023-03-03T12:25:18;99113.41;;;9.59;78.86
11912;BME280;6016;41.928;25.556;2023-03-03T12:27:53;99116.03;;;9.59;77.81
11912;BME280;6016;41.928;25.556;2023-03-03T12:30:41;99051.84;;;9.40;78.89
11912;BME280;6016;41.928;25.556;2023-03-03T12:33:21;99121.56;;;9.97;78.12
11912;BME280;6016;41.928;25.556;2023-03-03T12:35:57;99075.63;;;9.70;77.02
11912;BME280;6016;41.928;25.556;2023-03-03T12:38:36;99095.03;;;9.69;76.35
11912;BME280;6016;41.928;25.556;2023-03-03T12:41:07;99121.69;;;9.95;77.05
11912;BME280;6016;41.928;25.556;2023-03-03T12:43:46;99126.16;;;9.95;77.72
11912;BME280;6016;41.928;25.556;2023-03-03T12:46:23;99122.38;;;9.97;78.03
11912;BME280;6016;41.928;25.556;2023-03-03T12:48:52;99131.28;;;9.96;76.59
11912;BME280;6016;41.928;25.556;2023-03-03T12:51:32;99122.94;;;9.81;77.95
11912;BME280;6016;41.928;25.556;2023-03-03T12:56:54;99117.09;;;9.78;75.74
11912;BME280;6016;41.928;25.556;2023-03-03T12:59:33;99090.44;;;9.71;76.62
11912;BME280;6016;41.928;25.556;2023-03-03T13:02:26;99094.97;;;9.59;74.53
11912;BME280;6016;41.928;25.556;2023-03-03T13:05:01;99107.66;;;9.75;75.13
11912;BME280;6016;41.928;25.556;2023-03-03T13:07:36;99105.00;;;9.75;74.53
11912;BME280;6016;41.928;25.556;2023-03-03T13:10:15;99064.28;;;9.38;74.71
11912;BME280;6016;41.928;25.556;2023-03-03T13:12:46;98811.81;;;8.04;75.95
11912;BME280;6016;41.928;25.556;2023-03-03T13:15:20;99100.91;;;9.92;75.30
11912;BME280;6016;41.928;25.556;2023-03-03T13:17:58;99040.13;;;9.84;73.37
11912;BME280;6016;41.928;25.556;2023-03-03T13:20:35;99101.50;;;10.25;73.52
11912;BME280;6016;41.928;25.556;2023-03-03T13:23:07;99081.53;;;10.23;73.74
11912;BME280;6016;41.928;25.556;2023-03-03T13:25:48;99023.09;;;9.98;74.16
11912;BME280;6016;41.928;25.556;2023-03-03T13:28:24;99106.81;;;10.45;72.02
11912;BME280;6016;41.928;25.556;2023-03-03T13:30:57;99031.84;;;9.98;72.78
11912;BME280;6016;41.928;25.556;2023-03-03T13:33:29;99061.25;;;10.13;71.83
11912;BME280;6016;41.928;25.556;2023-03-03T13:35:58;99095.28;;;10.46;70.93
11912;BME280;6016;41.928;25.556;2023-03-03T13:38:29;99062.66;;;10.27;73.41
11912;BME280;6016;41.928;25.556;2023-03-03T13:41:04;99085.56;;;10.37;74.11
11912;BME280;6016;41.928;25.556;2023-03-03T13:43:37;99084.59;;;10.38;76.09
11912;BME280;6016;41.928;25.556;2023-03-03T13:46:15;99055.03;;;10.34;73.79